EST,Max TemperatureF,Mean TemperatureF,Min TemperatureF,Max Dew PointF,MeanDew PointF,Min DewpointF,Max Humidity, Mean Humidity, Min Humidity, Max Sea Level PressureIn, Mean Sea Level PressureIn, Min Sea Level PressureIn, Max VisibilityMiles, Mean VisibilityMiles, Min VisibilityMiles, Max Wind SpeedMPH, Mean Wind SpeedMPH, Max Gust SpeedMPH,PrecipitationIn, CloudCover, Events, WindDirDegrees
2013-2-1,18,14,10,10,6,0,84,69,54,30.25,30.13,29.85,10,10,5,23,14,29,T,6,Snow,260
2013-2-2,20,8,-4,16,8,-8,87,74,61,30.19,30.03,29.95,10,5,1,17,7,22,0.04,7,Snow,306
2013-2-3,20,9,-3,12,6,-7,87,77,67,30.04,29.92,29.82,10,7,2,23,7,29,T,6,Snow,260
2013-2-4,22,17,11,13,11,4,80,74,67,30.04,29.97,29.87,10,6,2,9,3,12,0.02,8,Snow,212
2013-2-5,28,16,3,25,15,0,92,76,60,29.98,29.89,29.78,10,6,2,18,6,23,T,6,Snow,242
2013-2-6,30,20,9,18,13,6,84,69,53,30.31,30.22,29.95,10,10,5,16,4,21,T,3,Snow,251
2013-2-7,37,32,26,26,21,16,75,67,59,30.29,30.10,29.92,10,8,1,17,9,22,0.05,8,Snow,118
2013-2-8,30,23,16,27,22,11,92,78,63,30.38,30.00,29.82,10,4,0,25,14,32,0.27,7,Fog-Rain-Snow,10
2013-2-9,31,12,-7,16,8,-11,95,71,47,30.48,30.40,30.29,10,9,2,13,4,15,0.00,1,,176
2013-2-10,41,29,17,35,22,13,85,69,52,30.28,30.02,29.68,10,9,4,25,12,32,0.12,5,Rain,150
2013-2-11,45,39,33,41,32,24,89,73,57,29.84,29.63,29.52,10,9,6,32,19,43,0.03,8,Rain,227
2013-2-12,33,31,28,23,21,20,75,69,63,30.04,29.97,29.88,10,10,10,22,14,29,0.00,8,,267
2013-2-13,39,33,27,25,22,19,81,68,54,29.94,29.82,29.75,10,10,8,14,6,18,0.00,6,,224
2013-2-14,41,36,30,33,29,25,85,78,70,29.84,29.73,29.64,10,7,1,30,12,37,0.01,7,Rain-Snow,210
2013-2-15,32,26,20,25,17,12,75,63,50,30.14,30.01,29.83,10,10,4,23,12,30,T,7,Snow,291
2013-2-16,26,21,16,18,13,6,80,66,52,30.12,30.04,29.97,10,7,0,17,6,21,0.03,7,Snow,304
2013-2-17,24,15,6,10,5,1,80,63,45,30.22,30.17,30.05,10,10,4,18,7,25,T,4,Snow,328
2013-2-18,48,31,14,34,18,7,67,57,47,30.21,29.93,29.57,10,10,10,23,15,31,T,4,,163
2013-2-19,48,34,19,39,23,10,85,71,56,29.92,29.62,29.39,10,7,0,28,19,40,0.16,8,Rain-Snow,247
2013-2-20,24,20,16,14,10,7,68,64,59,30.26,30.09,29.93,10,8,2,22,18,32,0.04,8,Snow,296
2013-2-21,25,21,17,18,12,9,77,66,55,30.42,30.35,30.27,10,9,2,23,9,32,T,7,Snow,46
2013-2-22,34,28,22,30,23,16,92,80,68,30.27,29.99,29.86,10,5,0,20,11,24,0.14,8,Fog-Snow,132
2013-2-23,34,30,25,30,22,18,89,76,63,29.93,29.88,29.85,10,7,2,17,10,23,T,8,Snow,239
2013-2-24,37,28,18,27,22,15,88,74,59,30.17,29.98,29.87,10,5,1,20,7,23,0.07,7,Snow,256
2013-2-25,41,29,17,25,21,14,88,67,46,30.25,30.19,30.14,10,9,7,8,2,10,0.00,4,,68
2013-2-26,37,31,24,31,27,19,89,77,64,30.14,29.78,29.54,10,5,0,24,14,30,0.44,6,Fog-Rain-Snow,74
2013-2-27,36,35,33,34,32,30,96,89,82,29.58,29.52,29.46,10,4,0,15,5,18,0.10,8,Fog-Rain-Snow,92
2013-2-28,35,32,29,32,29,22,96,83,69,30.00,29.71,29.54,10,5,0,24,12,30,0.04,8,Fog-Snow,355